sensor_id;sensor_type;location;lat;lon;timestamp;temperature;humidity
56771;DHT22;42641;59.794;17.616;2023-05-14T00:00:19;11.40;93.00
56771;DHT22;42641;59.794;17.616;2023-05-14T00:02:45;11.30;93.30
56771;DHT22;42641;59.794;17.616;2023-05-14T00:05:11;11.30;92.80
56771;DHT22;42641;59.794;17.616;2023-05-14T00:07:38;11.20;93.20
56771;DHT22;42641;59.794;17.616;2023-05-14T00:10:05;11.20;93.00
56771;DHT22;42641;59.794;17.616;2023-05-14T00:12:31;11.10;93.20
56771;DHT22;42641;59.794;17.616;2023-05-14T00:14:58;11.00;92.90
56771;DHT22;42641;59.794;17.616;2023-05-14T00:17:24;10.90;92.80
56771;DHT22;42641;59.794;17.616;2023-05-14T00:19:51;10.90;92.80
56771;DHT22;42641;59.794;17.616;2023-05-14T00:22:17;10.90;92.90
56771;DHT22;42641;59.794;17.616;2023-05-14T00:24:43;10.80;93.80
56771;DHT22;42641;59.794;17.616;2023-05-14T00:27:10;10.80;93.30
56771;DHT22;42641;59.794;17.616;2023-05-14T00:29:36;10.80;94.40
56771;DHT22;42641;59.794;17.616;2023-05-14T00:32:03;10.70;94.60
56771;DHT22;42641;59.794;17.616;2023-05-14T00:34:29;10.70;94.80
56771;DHT22;42641;59.794;17.616;2023-05-14T00:36:56;10.60;94.50
56771;DHT22;42641;59.794;17.616;2023-05-14T00:39:22;10.50;95.30
56771;DHT22;42641;59.794;17.616;2023-05-14T00:41:49;10.40;95.90
56771;DHT22;42641;59.794;17.616;2023-05-14T00:44:15;10.40;96.90
56771;DHT22;42641;59.794;17.616;2023-05-14T00:46:41;10.40;98.30
56771;DHT22;42641;59.794;17.616;2023-05-14T00:49:08;10.40;99.30
56771;DHT22;42641;59.794;17.616;2023-05-14T00:51:35;10.30;99.30
56771;DHT22;42641;59.794;17.616;2023-05-14T00:54:03;10.30;99.30
56771;DHT22;42641;59.794;17.616;2023-05-14T00:56:30;10.30;99.50
56771;DHT22;42641;59.794;17.616;2023-05-14T00:58:56;10.20;99.90
56771;DHT22;42641;59.794;17.616;2023-05-14T01:01:23;10.20;99.90
56771;DHT22;42641;59.794;17.616;2023-05-14T01:03:49;10.20;99.90
56771;DHT22;42641;59.794;17.616;2023-05-14T01:09:41;10.20;99.90
56771;DHT22;42641;59.794;17.616;2023-05-14T01:12:36;10.10;99.90
56771;DHT22;42641;59.794;17.616;2023-05-14T01:17:41;10.00;99.90
56771;DHT22;42641;59.794;17.616;2023-05-14T01:20:09;9.90;99.90
56771;DHT22;42641;59.794;17.616;2023-05-14T01:22:36;9.80;99.90
56771;DHT22;42641;59.794;17.616;2023-05-14T01:25:03;9.80;99.90
56771;DHT22;42641;59.794;17.616;2023-05-14T01:32:54;9.60;99.90
56771;DHT22;42641;59.794;17.616;2023-05-14T01:35:26;9.50;99.90
56771;DHT22;42641;59.794;17.616;2023-05-14T01:37:59;9.40;99.90
56771;DHT22;42641;59.794;17.616;2023-05-14T01:40:26;9.40;99.90
56771;DHT22;42641;59.794;17.616;2023-05-14T01:42:54;9.30;99.90
56771;DHT22;42641;59.794;17.616;2023-05-14T01:45:20;9.20;99.90
56771;DHT22;42641;59.794;17.616;2023-05-14T01:47:47;9.20;99.90
56771;DHT22;42641;59.794;17.616;2023-05-14T01:50:13;9.20;99.90
56771;DHT22;42641;59.794;17.616;2023-05-14T01:52:40;9.10;99.90
56771;DHT22;42641;59.794;17.616;2023-05-14T01:55:07;8.90;99.90
56771;DHT22;42641;59.794;17.616;2023-05-14T01:57:34;8.80;99.90
56771;DHT22;42641;59.794;17.616;2023-05-14T02:00:01;8.70;99.90
56771;DHT22;42641;59.794;17.616;2023-05-14T02:02:31;8.70;99.90
56771;DHT22;42641;59.794;17.616;2023-05-14T02:04:57;8.70;99.90
56771;DHT22;42641;59.794;17.616;2023-05-14T02:07:24;8.70;99.90
56771;DHT22;42641;59.794;17.616;2023-05-14T02:09:51;8.70;99.90
56771;DHT22;42641;59.794;17.616;2023-05-14T02:12:18;8.70;99.90
56771;DHT22;42641;59.794;17.616;2023-05-14T02:14:44;8.70;99.90
56771;DHT22;42641;59.794;17.616;2023-05-14T02:17:11;8.70;99.90
56771;DHT22;42641;59.794;17.616;2023-05-14T02:19:40;8.70;99.90
56771;DHT22;42641;59.794;17.616;2023-05-14T02:22:07;8.60;99.90
56771;DHT22;42641;59.794;17.616;2023-05-14T02:24:33;8.60;99.90
56771;DHT22;42641;59.794;17.616;2023-05-14T02:27:00;8.60;99.90
56771;DHT22;42641;59.794;17.616;2023-05-14T02:29:27;8.60;99.90
56771;DHT22;42641;59.794;17.616;2023-05-14T02:31:53;8.60;99.90
56771;DHT22;42641;59.794;17.616;2023-05-14T02:34:19;8.60;99.90
56771;DHT22;42641;59.794;17.616;2023-05-14T02:36:46;8.40;99.90
56771;DHT22;42641;59.794;17.616;2023-05-14T02:39:13;8.40;99.90
56771;DHT22;42641;59.794;17.616;2023-05-14T02:41:39;8.30;99.90
56771;DHT22;42641;59.794;17.616;2023-05-14T02:44:05;8.30;99.90
56771;DHT22;42641;59.794;17.616;2023-05-14T02:46:32;8.30;99.90
56771;DHT22;42641;59.794;17.616;2023-05-14T02:48:58;8.30;99.90
56771;DHT22;42641;59.794;17.616;2023-05-14T02:51:25;8.30;99.90
56771;DHT22;42641;59.794;17.616;2023-05-14T02:53:52;8.30;99.90
56771;DHT22;42641;59.794;17.616;2023-05-14T02:56:18;8.30;99.90
56771;DHT22;42641;59.794;17.616;2023-05-14T02:58:45;8.30;99.90
56771;DHT22;42641;59.794;17.616;2023-05-14T03:01:11;8.40;99.90
56771;DHT22;42641;59.794;17.616;2023-05-14T03:03:38;8.40;99.90
56771;DHT22;42641;59.794;17.616;2023-05-14T03:06:05;8.40;99.90
56771;DHT22;42641;59.794;17.616;2023-05-14T03:08:32;8.40;99.90
56771;DHT22;42641;59.794;17.616;2023-05-14T03:10:58;8.50;99.90
56771;DHT22;42641;59.794;17.616;2023-05-14T03:13:24;8.50;99.90
56771;DHT22;42641;59.794;17.616;2023-05-14T03:15:51;8.50;99.90
56771;DHT22;42641;59.794;17.616;2023-05-14T03:18:20;8.60;99.90
56771;DHT22;42641;59.794;17.616;2023-05-14T03:20:46;8.60;99.90
56771;DHT22;42641;59.794;17.616;2023-05-14T03:23:13;8.60;99.90
56771;DHT22;42641;59.794;17.616;2023-05-14T03:25:40;8.60;99.90
56771;DHT22;42641;59.794;17.616;2023-05-14T03:28:06;8.60;99.90
56771;DHT22;42641;59.794;17.616;2023-05-14T03:30:33;8.70;99.90
56771;DHT22;42641;59.794;17.616;2023-05-14T03:32:59;8.80;99.90
56771;DHT22;42641;59.794;17.616;2023-05-14T03:35:26;8.80;99.90
56771;DHT22;42641;59.794;17.616;2023-05-14T03:37:52;8.90;99.90
56771;DHT22;42641;59.794;17.616;2023-05-14T03:40:19;9.00;99.90
56771;DHT22;42641;59.794;17.616;2023-05-14T03:42:46;9.00;99.90
56771;DHT22;42641;59.794;17.616;2023-05-14T03:45:14;9.10;99.90
56771;DHT22;42641;59.794;17.616;2023-05-14T03:47:41;9.20;99.90
56771;DHT22;42641;59.794;17.616;2023-05-14T03:50:08;9.30;99.90
56771;DHT22;42641;59.794;17.616;2023-05-14T03:52:34;9.40;99.90
56771;DHT22;42641;59.794;17.616;2023-05-14T03:55:02;9.40;99.90
56771;DHT22;42641;59.794;17.616;2023-05-14T03:57:29;9.50;99.90
56771;DHT22;42641;59.794;17.616;2023-05-14T03:59:55;9.60;99.90
56771;DHT22;42641;59.794;17.616;2023-05-14T04:02:22;9.70;99.90
56771;DHT22;42641;59.794;17.616;2023-05-14T04:04:48;9.80;99.90
56771;DHT22;42641;59.794;17.616;2023-05-14T04:07:18;9.90;99.90
56771;DHT22;42641;59.794;17.616;2023-05-14T04:09:44;10.10;99.90
56771;DHT22;42641;59.794;17.616;2023-05-14T04:12:11;10.20;99.90
56771;DHT22;42641;59.794;17.616;2023-05-14T04:14:38;10.30;99.90
56771;DHT22;42641;59.794;17.616;2023-05-14T04:17:04;10.40;99.90
56771;DHT22;42641;59.794;17.616;2023-05-14T04:19:31;10.40;99.90
56771;DHT22;42641;59.794;17.616;2023-05-14T04:21:57;10.50;99.90
56771;DHT22;42641;59.794;17.616;2023-05-14T04:24:24;10.60;99.90
56771;DHT22;42641;59.794;17.616;2023-05-14T04:26:50;10.70;99.90
56771;DHT22;42641;59.794;17.616;2023-05-14T04:29:16;10.80;99.90
56771;DHT22;42641;59.794;17.616;2023-05-14T04:31:43;10.90;99.90
56771;DHT22;42641;59.794;17.616;2023-05-14T04:34:10;11.00;99.90
56771;DHT22;42641;59.794;17.616;2023-05-14T04:36:36;11.20;99.90
56771;DHT22;42641;59.794;17.616;2023-05-14T04:39:03;11.30;99.90
56771;DHT22;42641;59.794;17.616;2023-05-14T04:41:29;11.30;99.90
56771;DHT22;42641;59.794;17.616;2023-05-14T04:43:56;11.40;99.90
56771;DHT22;42641;59.794;17.616;2023-05-14T04:46:22;11.50;99.90
56771;DHT22;42641;59.794;17.616;2023-05-14T04:48:48;11.60;99.90
56771;DHT22;42641;59.794;17.616;2023-05-14T04:51:15;11.70;99.90
56771;DHT22;42641;59.794;17.616;2023-05-14T04:53:41;11.80;99.90
56771;DHT22;42641;59.794;17.616;2023-05-14T04:56:08;11.90;99.90
56771;DHT22;42641;59.794;17.616;2023-05-14T04:58:35;12.00;99.90
56771;DHT22;42641;59.794;17.616;2023-05-14T05:01:03;12.00;99.90
56771;DHT22;42641;59.794;17.616;2023-05-14T05:03:30;12.10;99.90
56771;DHT22;42641;59.794;17.616;2023-05-14T05:05:57;12.20;99.90
56771;DHT22;42641;59.794;17.616;2023-05-14T05:08:23;12.30;99.90
56771;DHT22;42641;59.794;17.616;2023-05-14T05:10:50;12.50;99.90
56771;DHT22;42641;59.794;17.616;2023-05-14T05:13:16;12.50;99.90
56771;DHT22;42641;59.794;17.616;2023-05-14T05:15:43;12.60;99.90
56771;DHT22;42641;59.794;17.616;2023-05-14T05:18:09;12.70;99.90
56771;DHT22;42641;59.794;17.616;2023-05-14T05:20:36;12.80;99.90
56771;DHT22;42641;59.794;17.616;2023-05-14T05:23:02;12.90;99.90
56771;DHT22;42641;59.794;17.616;2023-05-14T05:25:29;13.00;99.90
56771;DHT22;42641;59.794;17.616;2023-05-14T05:27:56;13.00;99.90
56771;DHT22;42641;59.794;17.616;2023-05-14T05:30:22;13.00;99.90
56771;DHT22;42641;59.794;17.616;2023-05-14T05:32:49;13.10;99.90
56771;DHT22;42641;59.794;17.616;2023-05-14T05:35:15;13.30;99.90
56771;DHT22;42641;59.794;17.616;2023-05-14T05:37:42;13.40;99.90
56771;DHT22;42641;59.794;17.616;2023-05-14T05:40:10;13.50;99.90
56771;DHT22;42641;59.794;17.616;2023-05-14T05:42:40;13.70;99.90
56771;DHT22;42641;59.794;17.616;2023-05-14T05:45:07;13.70;99.90
56771;DHT22;42641;59.794;17.616;2023-05-14T05:47:33;13.90;99.90
56771;DHT22;42641;59.794;17.616;2023-05-14T05:50:00;14.10;99.90
56771;DHT22;42641;59.794;17.616;2023-05-14T05:52:26;14.20;99.90
56771;DHT22;42641;59.794;17.616;2023-05-14T05:54:53;14.30;99.90
56771;DHT22;42641;59.794;17.616;2023-05-14T05:57:19;14.40;99.90
56771;DHT22;42641;59.794;17.616;2023-05-14T05:59:47;14.60;99.90
56771;DHT22;42641;59.794;17.616;2023-05-14T06:02:13;14.60;99.90
56771;DHT22;42641;59.794;17.616;2023-05-14T06:04:40;14.70;99.90
56771;DHT22;42641;59.794;17.616;2023-05-14T06:07:06;14.80;99.90
56771;DHT22;42641;59.794;17.616;2023-05-14T06:09:32;14.90;99.90
56771;DHT22;42641;59.794;17.616;2023-05-14T06:11:59;15.00;99.90
56771;DHT22;42641;59.794;17.616;2023-05-14T06:14:25;15.10;99.90
56771;DHT22;42641;59.794;17.616;2023-05-14T06:16:52;15.20;99.90
56771;DHT22;42641;59.794;17.616;2023-05-14T06:19:18;15.30;99.90
56771;DHT22;42641;59.794;17.616;2023-05-14T06:21:45;15.40;99.90
56771;DHT22;42641;59.794;17.616;2023-05-14T06:24:11;15.40;99.90
56771;DHT22;42641;59.794;17.616;2023-05-14T06:26:38;15.60;99.90
56771;DHT22;42641;59.794;17.616;2023-05-14T06:29:04;15.80;99.90
56771;DHT22;42641;59.794;17.616;2023-05-14T06:31:31;15.90;99.90
56771;DHT22;42641;59.794;17.616;2023-05-14T06:33:57;16.00;99.90
56771;DHT22;42641;59.794;17.616;2023-05-14T06:36:24;16.10;99.90
56771;DHT22;42641;59.794;17.616;2023-05-14T06:38:50;16.20;99.90
56771;DHT22;42641;59.794;17.616;2023-05-14T06:41:17;16.30;99.90
56771;DHT22;42641;59.794;17.616;2023-05-14T06:43:43;16.30;99.90
56771;DHT22;42641;59.794;17.616;2023-05-14T06:46:09;16.40;99.90
56771;DHT22;42641;59.794;17.616;2023-05-14T06:48:36;16.60;99.90
56771;DHT22;42641;59.794;17.616;2023-05-14T06:51:02;16.70;99.90
56771;DHT22;42641;59.794;17.616;2023-05-14T06:53:29;16.90;99.90
56771;DHT22;42641;59.794;17.616;2023-05-14T06:55:56;17.20;99.90
56771;DHT22;42641;59.794;17.616;2023-05-14T06:58:22;17.30;99.60
56771;DHT22;42641;59.794;17.616;2023-05-14T07:00:48;17.40;99.10
56771;DHT22;42641;59.794;17.616;2023-05-14T07:03:15;17.50;98.60
56771;DHT22;42641;59.794;17.616;2023-05-14T07:05:41;17.60;98.20
56771;DHT22;42641;59.794;17.616;2023-05-14T07:08:10;17.60;98.20
56771;DHT22;42641;59.794;17.616;2023-05-14T07:10:36;17.70;98.50
56771;DHT22;42641;59.794;17.616;2023-05-14T07:13:04;17.90;98.50
56771;DHT22;42641;59.794;17.616;2023-05-14T07:15:31;17.90;98.40
56771;DHT22;42641;59.794;17.616;2023-05-14T07:17:57;18.00;98.50
56771;DHT22;42641;59.794;17.616;2023-05-14T07:20:24;18.10;98.00
56771;DHT22;42641;59.794;17.616;2023-05-14T07:22:51;18.30;98.00
56771;DHT22;42641;59.794;17.616;2023-05-14T07:25:17;18.40;97.90
56771;DHT22;42641;59.794;17.616;2023-05-14T07:27:44;18.60;97.40
56771;DHT22;42641;59.794;17.616;2023-05-14T07:30:11;18.80;96.00
56771;DHT22;42641;59.794;17.616;2023-05-14T07:32:37;19.00;95.20
56771;DHT22;42641;59.794;17.616;2023-05-14T07:35:04;19.10;94.80
56771;DHT22;42641;59.794;17.616;2023-05-14T07:37:31;19.20;94.70
56771;DHT22;42641;59.794;17.616;2023-05-14T07:39:58;19.30;95.00
56771;DHT22;42641;59.794;17.616;2023-05-14T07:42:24;19.50;94.90
56771;DHT22;42641;59.794;17.616;2023-05-14T07:44:52;19.60;94.70
56771;DHT22;42641;59.794;17.616;2023-05-14T07:47:18;19.70;95.10
56771;DHT22;42641;59.794;17.616;2023-05-14T07:49:45;19.90;94.40
56771;DHT22;42641;59.794;17.616;2023-05-14T07:52:11;20.00;93.60
56771;DHT22;42641;59.794;17.616;2023-05-14T07:54:37;20.10;92.80
56771;DHT22;42641;59.794;17.616;2023-05-14T07:57:04;20.20;92.40
56771;DHT22;42641;59.794;17.616;2023-05-14T07:59:30;20.30;92.20
56771;DHT22;42641;59.794;17.616;2023-05-14T08:01:57;20.40;91.70
56771;DHT22;42641;59.794;17.616;2023-05-14T08:04:23;20.50;91.10
56771;DHT22;42641;59.794;17.616;2023-05-14T08:06:50;20.70;90.90
56771;DHT22;42641;59.794;17.616;2023-05-14T08:09:16;20.80;90.10
56771;DHT22;42641;59.794;17.616;2023-05-14T08:11:43;20.90;90.10
56771;DHT22;42641;59.794;17.616;2023-05-14T08:14:09;20.90;88.50
56771;DHT22;42641;59.794;17.616;2023-05-14T08:16:36;20.90;89.10
56771;DHT22;42641;59.794;17.616;2023-05-14T08:19:03;21.00;89.00
56771;DHT22;42641;59.794;17.616;2023-05-14T08:21:30;21.20;88.90
56771;DHT22;42641;59.794;17.616;2023-05-14T08:23:58;21.30;86.60
56771;DHT22;42641;59.794;17.616;2023-05-14T08:26:24;21.40;86.80
56771;DHT22;42641;59.794;17.616;2023-05-14T08:28:52;21.50;84.90
56771;DHT22;42641;59.794;17.616;2023-05-14T08:31:19;21.70;83.10
56771;DHT22;42641;59.794;17.616;2023-05-14T08:33:46;21.80;82.50
56771;DHT22;42641;59.794;17.616;2023-05-14T08:36:13;22.00;82.10
56771;DHT22;42641;59.794;17.616;2023-05-14T08:38:39;22.10;80.20
56771;DHT22;42641;59.794;17.616;2023-05-14T08:41:07;22.20;79.30
56771;DHT22;42641;59.794;17.616;2023-05-14T08:43:56;22.40;78.70
56771;DHT22;42641;59.794;17.616;2023-05-14T08:46:24;22.50;78.90
56771;DHT22;42641;59.794;17.616;2023-05-14T08:48:56;22.60;78.00
56771;DHT22;42641;59.794;17.616;2023-05-14T08:51:26;22.70;76.50
56771;DHT22;42641;59.794;17.616;2023-05-14T08:53:53;22.80;76.20
56771;DHT22;42641;59.794;17.616;2023-05-14T08:56:20;23.00;76.10
56771;DHT22;42641;59.794;17.616;2023-05-14T08:58:47;23.10;76.20
56771;DHT22;42641;59.794;17.616;2023-05-14T09:01:14;23.30;74.00
56771;DHT22;42641;59.794;17.616;2023-05-14T09:03:40;23.40;74.10
56771;DHT22;42641;59.794;17.616;2023-05-14T09:06:07;23.40;72.70
56771;DHT22;42641;59.794;17.616;2023-05-14T09:08:34;23.40;72.20
56771;DHT22;42641;59.794;17.616;2023-05-14T09:11:01;23.50;70.60
56771;DHT22;42641;59.794;17.616;2023-05-14T09:13:27;23.60;69.80
56771;DHT22;42641;59.794;17.616;2023-05-14T09:15:54;23.70;68.90
56771;DHT22;42641;59.794;17.616;2023-05-14T09:18:21;23.80;67.20
56771;DHT22;42641;59.794;17.616;2023-05-14T09:20:48;23.90;68.70
56771;DHT22;42641;59.794;17.616;2023-05-14T09:23:14;24.10;67.10
56771;DHT22;42641;59.794;17.616;2023-05-14T09:25:41;24.30;64.80
56771;DHT22;42641;59.794;17.616;2023-05-14T09:28:08;24.50;63.30
56771;DHT22;42641;59.794;17.616;2023-05-14T09:30:34;24.60;62.40
56771;DHT22;42641;59.794;17.616;2023-05-14T09:33:02;24.60;61.90
56771;DHT22;42641;59.794;17.616;2023-05-14T09:35:29;24.80;62.00
56771;DHT22;42641;59.794;17.616;2023-05-14T09:37:57;24.80;62.20
56771;DHT22;42641;59.794;17.616;2023-05-14T09:40:23;24.90;59.90
56771;DHT22;42641;59.794;17.616;2023-05-14T09:42:50;25.00;59.80
56771;DHT22;42641;59.794;17.616;2023-05-14T09:45:16;25.20;59.50
56771;DHT22;42641;59.794;17.616;2023-05-14T09:47:43;25.40;58.30
56771;DHT22;42641;59.794;17.616;2023-05-14T09:50:10;25.50;55.90
56771;DHT22;42641;59.794;17.616;2023-05-14T09:52:37;25.50;56.20
56771;DHT22;42641;59.794;17.616;2023-05-14T09:55:04;25.60;55.90
56771;DHT22;42641;59.794;17.616;2023-05-14T09:57:30;25.80;55.80
56771;DHT22;42641;59.794;17.616;2023-05-14T09:59:57;25.90;54.90
56771;DHT22;42641;59.794;17.616;2023-05-14T10:02:25;25.90;55.70
56771;DHT22;42641;59.794;17.616;2023-05-14T10:04:57;26.10;56.90
56771;DHT22;42641;59.794;17.616;2023-05-14T10:07:30;26.30;56.80
56771;DHT22;42641;59.794;17.616;2023-05-14T10:10:02;26.30;58.00
56771;DHT22;42641;59.794;17.616;2023-05-14T10:12:33;26.20;56.80
56771;DHT22;42641;59.794;17.616;2023-05-14T10:15:06;26.10;55.30
56771;DHT22;42641;59.794;17.616;2023-05-14T10:17:37;25.90;55.50
56771;DHT22;42641;59.794;17.616;2023-05-14T10:20:07;26.00;56.00
56771;DHT22;42641;59.794;17.616;2023-05-14T10:22:35;26.20;56.20
56771;DHT22;42641;59.794;17.616;2023-05-14T10:25:02;26.60;56.90
56771;DHT22;42641;59.794;17.616;2023-05-14T10:27:29;26.90;55.70
56771;DHT22;42641;59.794;17.616;2023-05-14T10:29:56;27.20;54.20
56771;DHT22;42641;59.794;17.616;2023-05-14T10:32:24;27.50;54.20
56771;DHT22;42641;59.794;17.616;2023-05-14T10:34:54;27.60;55.20
56771;DHT22;42641;59.794;17.616;2023-05-14T10:37:25;27.70;54.30
56771;DHT22;42641;59.794;17.616;2023-05-14T10:39:58;27.90;53.10
56771;DHT22;42641;59.794;17.616;2023-05-14T10:42:30;28.00;54.00
56771;DHT22;42641;59.794;17.616;2023-05-14T10:45:00;28.20;53.10
56771;DHT22;42641;59.794;17.616;2023-05-14T10:47:27;28.30;51.50
56771;DHT22;42641;59.794;17.616;2023-05-14T10:49:58;28.40;51.50
56771;DHT22;42641;59.794;17.616;2023-05-14T10:52:26;28.40;51.70
56771;DHT22;42641;59.794;17.616;2023-05-14T10:54:54;28.50;50.80
56771;DHT22;42641;59.794;17.616;2023-05-14T10:57:31;28.60;52.50
56771;DHT22;42641;59.794;17.616;2023-05-14T10:59:59;28.50;54.10
56771;DHT22;42641;59.794;17.616;2023-05-14T11:02:31;28.50;53.60
56771;DHT22;42641;59.794;17.616;2023-05-14T11:05:18;28.60;55.70
56771;DHT22;42641;59.794;17.616;2023-05-14T11:07:46;28.90;55.60
56771;DHT22;42641;59.794;17.616;2023-05-14T11:10:15;29.10;56.60
56771;DHT22;42641;59.794;17.616;2023-05-14T11:12:47;29.70;50.20
56771;DHT22;42641;59.794;17.616;2023-05-14T11:15:15;30.20;45.60
56771;DHT22;42641;59.794;17.616;2023-05-14T11:17:43;30.50;47.80
56771;DHT22;42641;59.794;17.616;2023-05-14T11:20:11;30.80;47.00
56771;DHT22;42641;59.794;17.616;2023-05-14T11:22:40;30.90;44.40
56771;DHT22;42641;59.794;17.616;2023-05-14T11:25:08;31.20;43.80
56771;DHT22;42641;59.794;17.616;2023-05-14T11:27:37;31.20;42.60
56771;DHT22;42641;59.794;17.616;2023-05-14T11:30:10;31.00;43.30
56771;DHT22;42641;59.794;17.616;2023-05-14T11:32:37;31.70;45.10
56771;DHT22;42641;59.794;17.616;2023-05-14T11:35:03;31.80;45.50
56771;DHT22;42641;59.794;17.616;2023-05-14T11:37:31;32.00;45.00
56771;DHT22;42641;59.794;17.616;2023-05-14T11:39:59;32.50;45.80
56771;DHT22;42641;59.794;17.616;2023-05-14T11:42:26;33.00;45.60
56771;DHT22;42641;59.794;17.616;2023-05-14T11:44:52;33.40;43.70
56771;DHT22;42641;59.794;17.616;2023-05-14T11:47:20;33.50;42.50
56771;DHT22;42641;59.794;17.616;2023-05-14T11:49:47;33.50;43.90
56771;DHT22;42641;59.794;17.616;2023-05-14T11:52:15;33.70;43.00
56771;DHT22;42641;59.794;17.616;2023-05-14T11:54:44;33.50;43.10
56771;DHT22;42641;59.794;17.616;2023-05-14T11:57:18;33.30;42.50
56771;DHT22;42641;59.794;17.616;2023-05-14T11:59:47;33.80;41.70
56771;DHT22;42641;59.794;17.616;2023-05-14T12:02:16;34.30;40.70
56771;DHT22;42641;59.794;17.616;2023-05-14T12:04:44;34.60;40.30
56771;DHT22;42641;59.794;17.616;2023-05-14T12:07:15;34.70;41.10
56771;DHT22;42641;59.794;17.616;2023-05-14T12:09:46;35.00;40.60
56771;DHT22;42641;59.794;17.616;2023-05-14T12:12:18;35.20;39.40
56771;DHT22;42641;59.794;17.616;2023-05-14T12:14:45;35.40;39.40
56771;DHT22;42641;59.794;17.616;2023-05-14T12:17:13;35.00;39.80
56771;DHT22;42641;59.794;17.616;2023-05-14T12:19:42;35.10;40.50
56771;DHT22;42641;59.794;17.616;2023-05-14T12:22:10;35.30;42.30
56771;DHT22;42641;59.794;17.616;2023-05-14T12:24:37;35.60;41.00
56771;DHT22;42641;59.794;17.616;2023-05-14T12:27:05;35.60;41.10
56771;DHT22;42641;59.794;17.616;2023-05-14T12:29:37;35.70;40.90
56771;DHT22;42641;59.794;17.616;2023-05-14T12:32:08;35.60;39.40
56771;DHT22;42641;59.794;17.616;2023-05-14T12:34:35;34.80;38.80
56771;DHT22;42641;59.794;17.616;2023-05-14T12:37:02;34.00;40.80
56771;DHT22;42641;59.794;17.616;2023-05-14T12:39:32;34.30;41.20
56771;DHT22;42641;59.794;17.616;2023-05-14T12:41:59;34.70;42.10
56771;DHT22;42641;59.794;17.616;2023-05-14T12:44:25;35.00;42.00
56771;DHT22;42641;59.794;17.616;2023-05-14T12:46:52;35.50;40.10
56771;DHT22;42641;59.794;17.616;2023-05-14T12:49:19;35.90;38.10
56771;DHT22;42641;59.794;17.616;2023-05-14T12:51:45;36.10;38.90
56771;DHT22;42641;59.794;17.616;2023-05-14T12:54:12;36.30;38.60
56771;DHT22;42641;59.794;17.616;2023-05-14T12:56:41;36.30;37.90
56771;DHT22;42641;59.794;17.616;2023-05-14T12:59:07;36.10;36.50
56771;DHT22;42641;59.794;17.616;2023-05-14T13:01:34;36.10;37.40
56771;DHT22;42641;59.794;17.616;2023-05-14T13:04:01;35.80;37.60
56771;DHT22;42641;59.794;17.616;2023-05-14T13:06:28;35.70;38.20
56771;DHT22;42641;59.794;17.616;2023-05-14T13:08:54;36.20;37.80
56771;DHT22;42641;59.794;17.616;2023-05-14T13:11:21;36.60;38.30
56771;DHT22;42641;59.794;17.616;2023-05-14T13:13:48;36.90;38.10
56771;DHT22;42641;59.794;17.616;2023-05-14T13:16:15;37.00;37.10
56771;DHT22;42641;59.794;17.616;2023-05-14T13:18:41;37.20;36.60
56771;DHT22;42641;59.794;17.616;2023-05-14T13:21:08;37.30;36.10
56771;DHT22;42641;59.794;17.616;2023-05-14T13:23:34;36.80;35.50
56771;DHT22;42641;59.794;17.616;2023-05-14T13:26:01;36.00;35.50
56771;DHT22;42641;59.794;17.616;2023-05-14T13:28:27;35.80;37.40
56771;DHT22;42641;59.794;17.616;2023-05-14T13:31:07;36.10;37.00
56771;DHT22;42641;59.794;17.616;2023-05-14T13:33:35;36.10;38.20
56771;DHT22;42641;59.794;17.616;2023-05-14T13:36:03;36.30;37.50
56771;DHT22;42641;59.794;17.616;2023-05-14T13:38:29;36.60;36.60
56771;DHT22;42641;59.794;17.616;2023-05-14T13:40:56;36.00;36.00
56771;DHT22;42641;59.794;17.616;2023-05-14T13:43:33;36.10;36.50
56771;DHT22;42641;59.794;17.616;2023-05-14T13:46:01;35.90;38.10
56771;DHT22;42641;59.794;17.616;2023-05-14T13:48:28;36.00;38.70
56771;DHT22;42641;59.794;17.616;2023-05-14T13:50:56;36.10;38.10
56771;DHT22;42641;59.794;17.616;2023-05-14T13:53:23;36.10;36.60
56771;DHT22;42641;59.794;17.616;2023-05-14T13:55:50;36.30;37.90
56771;DHT22;42641;59.794;17.616;2023-05-14T13:58:27;36.50;37.90
56771;DHT22;42641;59.794;17.616;2023-05-14T14:00:54;36.10;36.20
56771;DHT22;42641;59.794;17.616;2023-05-14T14:03:21;35.80;36.30
56771;DHT22;42641;59.794;17.616;2023-05-14T14:05:48;36.00;36.60
56771;DHT22;42641;59.794;17.616;2023-05-14T14:08:15;35.80;37.60
56771;DHT22;42641;59.794;17.616;2023-05-14T14:10:41;36.10;36.90
56771;DHT22;42641;59.794;17.616;2023-05-14T14:13:08;36.40;36.80
56771;DHT22;42641;59.794;17.616;2023-05-14T14:15:36;36.40;37.80
56771;DHT22;42641;59.794;17.616;2023-05-14T14:18:03;36.00;35.10
56771;DHT22;42641;59.794;17.616;2023-05-14T14:20:29;35.10;36.70
56771;DHT22;42641;59.794;17.616;2023-05-14T14:22:56;34.70;36.30
56771;DHT22;42641;59.794;17.616;2023-05-14T14:25:23;34.20;36.70
56771;DHT22;42641;59.794;17.616;2023-05-14T14:27:49;33.90;37.80
56771;DHT22;42641;59.794;17.616;2023-05-14T14:30:16;34.10;37.60
56771;DHT22;42641;59.794;17.616;2023-05-14T14:32:49;34.60;37.30
56771;DHT22;42641;59.794;17.616;2023-05-14T14:35:17;33.80;37.20
56771;DHT22;42641;59.794;17.616;2023-05-14T14:37:44;32.70;38.10
56771;DHT22;42641;59.794;17.616;2023-05-14T14:40:15;32.50;39.00
56771;DHT22;42641;59.794;17.616;2023-05-14T14:42:42;32.20;39.20
56771;DHT22;42641;59.794;17.616;2023-05-14T14:45:09;32.60;40.60
56771;DHT22;42641;59.794;17.616;2023-05-14T14:47:36;32.50;42.30
56771;DHT22;42641;59.794;17.616;2023-05-14T14:50:02;32.90;42.80
56771;DHT22;42641;59.794;17.616;2023-05-14T14:52:29;33.40;43.10
56771;DHT22;42641;59.794;17.616;2023-05-14T14:54:55;33.40;38.00
56771;DHT22;42641;59.794;17.616;2023-05-14T14:57:22;33.30;37.10
56771;DHT22;42641;59.794;17.616;2023-05-14T14:59:48;32.60;37.80
56771;DHT22;42641;59.794;17.616;2023-05-14T15:02:15;32.40;39.00
56771;DHT22;42641;59.794;17.616;2023-05-14T15:04:42;32.90;38.60
56771;DHT22;42641;59.794;17.616;2023-05-14T15:07:08;32.90;37.80
56771;DHT22;42641;59.794;17.616;2023-05-14T15:09:35;33.10;38.40
56771;DHT22;42641;59.794;17.616;2023-05-14T15:12:01;33.40;38.10
56771;DHT22;42641;59.794;17.616;2023-05-14T15:14:28;33.60;38.00
56771;DHT22;42641;59.794;17.616;2023-05-14T15:16:54;34.30;38.80
56771;DHT22;42641;59.794;17.616;2023-05-14T15:19:21;34.40;39.70
56771;DHT22;42641;59.794;17.616;2023-05-14T15:21:47;34.10;37.70
56771;DHT22;42641;59.794;17.616;2023-05-14T15:24:14;33.80;38.60
56771;DHT22;42641;59.794;17.616;2023-05-14T15:26:40;33.90;38.00
56771;DHT22;42641;59.794;17.616;2023-05-14T15:29:07;33.90;39.10